Chaplin, Canada
Current Conditions -  °F | °C
As of 3:00 PM on Saturday 25 Oct 2014 (Local Time) from CYYN Reporting Station
Clear Clear  
Wind Chill: 12°   Ceiling: Unl
Heat Index: 12°   Visibility: 9mi
Dew Point: -4°   Wind: 15mph
Humidity: 33%   Direction: 130°SE
Pressure: 29.89"   Gusts: 23mph
Location:  50.47°N, 106.67°W
Report Text: CYYN 252100Z AUTO 13013G20KT 9SM CLR 12/M04 A2989 RMK SLP137 DENSITY ALT 3000FT
Loading
Personal Weather Stations






























Interactive Weather Map
Tropical Storm Tracking
New forecast layout! Learn more

10-Day Weather Forecast

Advertisements
Track Severe Weather on mobile